Terminal Aerodrome Forecast
Issued by NWS Atlanta, GA

Home | Current Version | Previous Version | Text Only | Print | Product List | Glossary On
Versions: 1 2 3 4 5 6 7 8 9 10 11 12 13 14 15 16
000
FTUS42 KFFC 022331
TAFMCN
TAF
KMCN 022331Z 0300/0324 29005KT P6SM SCT035 BKN100
      TEMPO 0300/0304 -RA BKN035
     FM030400 02003KT 5SM BR BKN025
     FM030700 05004KT 4SM -RADZ BR OVC010
     FM031000 08005KT 2SM -RADZ BR OVC004
     FM031600 09006KT 3SM -RADZ BR OVC007
     FM032100 12005KT 4SM BR BKN012=

USA.gov is the U.S. government's official web portal to all federal, state and local government web resources and services.